Time;durP1;ratioP1;P1;durP2;ratioP2;P2;SDS_P1;SDS_P2;PMS_P1;PMS_P2;Temp;Humidity;BMP_temperature;BMP_pressure;BME280_temperature;BME280_humidity;BME280_pressure;Samples;Min_cycle;Max_cycle;Signal;HPM_P1;HPM_P2
2022/07/16 00:03:17;;;;;;;;;;;;;;;17.39;100.00;99843.22;5074869;28;20007;-77
2022/07/16 00:05:44;;;;;;;;;;;;;;;17.44;100.00;99842.69;5073724;28;19924;-77
2022/07/16 00:08:11;;;;;;;;;;;;;;;17.36;100.00;99849.78;5056704;28;20398;-77
2022/07/16 00:10:38;;;;;;;;;;;;;;;17.14;100.00;99854.50;5073577;28;20001;-77
2022/07/16 00:13:05;;;;;;;;;;;;;;;17.26;100.00;99848.06;5074666;28;19924;-77
2022/07/16 00:15:32;;;;;;;;;;;;;;;16.88;100.00;99858.50;5074408;28;20399;-77
2022/07/16 00:20:45;;;;;;;;;;;;;;;16.61;100.00;99849.59;5074541;28;20015;-77
2022/07/16 00:23:13;;;;;;;;;;;;;;;16.58;100.00;99845.66;5055982;28;19955;-77
2022/07/16 00:25:40;;;;;;;;;;;;;;;16.91;100.00;99858.41;5073166;28;19924;-77
2022/07/16 00:28:07;;;;;;;;;;;;;;;16.24;100.00;99860.22;5073150;28;20393;-77
2022/07/16 00:30:34;;;;;;;;;;;;;;;16.39;100.00;99862.69;5072922;28;19929;-77
2022/07/16 00:33:01;;;;;;;;;;;;;;;16.14;100.00;99858.47;5056340;28;20460;-77
2022/07/16 00:35:28;;;;;;;;;;;;;;;15.89;100.00;99863.94;5073019;28;19947;-77
2022/07/16 00:37:55;;;;;;;;;;;;;;;16.27;100.00;99863.41;5074130;28;20027;-77
2022/07/16 00:40:23;;;;;;;;;;;;;;;15.97;100.00;99861.75;5072888;28;19936;-77
2022/07/16 00:42:49;;;;;;;;;;;;;;;15.39;100.00;99863.53;5072907;28;20354;-77
2022/07/16 00:45:16;;;;;;;;;;;;;;;15.94;100.00;99866.25;5073722;28;19924;-77
2022/07/16 00:47:44;;;;;;;;;;;;;;;15.24;100.00;99867.88;5056021;28;19968;-77
2022/07/16 00:50:11;;;;;;;;;;;;;;;16.05;100.00;99871.63;5056096;28;20349;-77
2022/07/16 00:52:38;;;;;;;;;;;;;;;15.91;100.00;99861.47;5074052;28;19955;-77
2022/07/16 00:55:05;;;;;;;;;;;;;;;16.24;100.00;99873.53;5072489;28;19932;-77
2022/07/16 00:57:33;;;;;;;;;;;;;;;15.80;100.00;99869.41;5073700;28;20319;-77
2022/07/16 01:00:00;;;;;;;;;;;;;;;15.89;100.00;99872.41;5072206;28;19924;-77
2022/07/16 01:02:26;;;;;;;;;;;;;;;16.11;100.00;99867.78;5072496;28;19962;-77
2022/07/16 01:04:53;;;;;;;;;;;;;;;16.56;100.00;99869.88;5055807;28;19975;-77
2022/07/16 01:07:22;;;;;;;;;;;;;;;16.80;100.00;99869.19;5072279;28;20017;-77
2022/07/16 01:09:50;;;;;;;;;;;;;;;16.50;100.00;99866.81;5072199;28;20407;-77
2022/07/16 01:12:18;;;;;;;;;;;;;;;15.18;100.00;99861.16;5055653;28;20023;-77
2022/07/16 01:14:45;;;;;;;;;;;;;;;15.63;100.00;99876.25;5071973;28;19931;-77
2022/07/16 01:17:12;;;;;;;;;;;;;;;15.30;100.00;99874.56;5072240;28;20062;-77
2022/07/16 01:19:40;;;;;;;;;;;;;;;16.46;100.00;99874.59;5055292;28;20390;-77
2022/07/16 01:22:06;;;;;;;;;;;;;;;16.45;100.00;99875.03;5073292;28;20417;-77
2022/07/16 01:24:33;;;;;;;;;;;;;;;16.16;100.00;99870.09;5055254;28;19924;-77
2022/07/16 01:27:00;;;;;;;;;;;;;;;16.34;100.00;99875.28;5069988;28;20021;-77
2022/07/16 01:29:27;;;;;;;;;;;;;;;16.61;100.00;99874.97;5055440;28;20345;-77
2022/07/16 01:31:54;;;;;;;;;;;;;;;15.81;100.00;99873.78;5072107;28;19993;-77
2022/07/16 01:34:24;;;;;;;;;;;;;;;16.43;100.00;99877.47;5038811;28;19925;-77
2022/07/16 01:37:03;;;;;;;;;;;;;;;16.16;100.00;99875.72;5088548;28;19974;-77
2022/07/16 01:39:31;;;;;;;;;;;;;;;16.68;100.00;99871.97;5072066;28;19924;-77
2022/07/16 01:41:59;;;;;;;;;;;;;;;15.93;100.00;99878.72;5055126;28;20441;-77
2022/07/16 01:44:27;;;;;;;;;;;;;;;16.06;100.00;99882.44;5071999;28;20321;-77
2022/07/16 01:46:55;;;;;;;;;;;;;;;16.22;100.00;99885.25;5055103;28;19963;-77
2022/07/16 01:49:23;;;;;;;;;;;;;;;16.54;100.00;99878.78;5071926;28;19929;-77
2022/07/16 01:51:50;;;;;;;;;;;;;;;16.33;100.00;99878.56;5071736;28;19939;-77
2022/07/16 01:54:17;;;;;;;;;;;;;;;16.21;100.00;99874.41;5071656;28;19932;-77
2022/07/16 01:56:44;;;;;;;;;;;;;;;16.14;100.00;99866.13;5055084;28;19931;-77
2022/07/16 01:59:11;;;;;;;;;;;;;;;15.96;100.00;99877.84;5071838;28;19924;-77
2022/07/16 02:01:38;;;;;;;;;;;;;;;16.24;100.00;99871.50;5038550;28;20013;-77
2022/07/16 02:04:05;;;;;;;;;;;;;;;16.46;100.00;99879.44;5055104;28;19925;-77
2022/07/16 02:06:33;;;;;;;;;;;;;;;16.07;100.00;99875.56;5072667;28;19928;-77
2022/07/16 02:08:59;;;;;;;;;;;;;;;16.28;100.00;99877.84;5055010;28;19924;-77
2022/07/16 02:11:27;;;;;;;;;;;;;;;16.32;100.00;99882.59;5071557;28;19925;-77
2022/07/16 02:13:54;;;;;;;;;;;;;;;16.34;100.00;99888.59;5072826;28;19964;-77
2022/07/16 02:16:21;;;;;;;;;;;;;;;15.50;100.00;99889.44;5055006;28;20015;-77
2022/07/16 02:18:48;;;;;;;;;;;;;;;15.78;100.00;99899.25;5071412;28;20003;-77
2022/07/16 02:21:15;;;;;;;;;;;;;;;15.81;100.00;99899.16;5054618;28;19931;-77
2022/07/16 02:23:42;;;;;;;;;;;;;;;16.10;100.00;99899.25;5072772;28;20445;-77
2022/07/16 02:26:09;;;;;;;;;;;;;;;15.66;100.00;99892.28;5054735;28;19924;-77
2022/07/16 02:28:36;;;;;;;;;;;;;;;15.58;100.00;99893.69;5071550;28;20383;-77
2022/07/16 02:31:03;;;;;;;;;;;;;;;15.89;100.00;99889.31;5055052;28;19928;-77
2022/07/16 02:33:30;;;;;;;;;;;;;;;15.91;100.00;99886.84;5088141;28;20027;-77
2022/07/16 02:35:57;;;;;;;;;;;;;;;15.98;100.00;99891.50;5071287;28;19924;-77
2022/07/16 02:38:24;;;;;;;;;;;;;;;15.79;100.00;99879.09;5054669;28;19974;-77
2022/07/16 02:40:52;;;;;;;;;;;;;;;15.58;100.00;99885.25;5071262;28;19964;-77
2022/07/16 02:43:19;;;;;;;;;;;;;;;15.55;100.00;99897.38;5054604;28;19972;-77
2022/07/16 02:45:45;;;;;;;;;;;;;;;15.90;100.00;99895.75;5072604;28;19931;-77
2022/07/16 02:48:12;;;;;;;;;;;;;;;16.15;100.00;99901.56;5074935;28;20011;-77
2022/07/16 02:50:40;;;;;;;;;;;;;;;15.92;100.00;99894.06;5076092;28;20283;-77
2022/07/16 02:53:07;;;;;;;;;;;;;;;15.58;100.00;99890.06;5076244;28;19950;-77
2022/07/16 02:55:34;;;;;;;;;;;;;;;15.50;100.00;99906.34;5074686;28;19931;-77
2022/07/16 02:58:01;;;;;;;;;;;;;;;14.86;100.00;99897.63;5041509;28;20021;-77
2022/07/16 03:00:28;;;;;;;;;;;;;;;15.34;100.00;99900.63;5074894;28;19925;-77
2022/07/16 03:02:55;;;;;;;;;;;;;;;15.21;100.00;99902.53;5058060;28;19925;-77
2022/07/16 03:05:23;;;;;;;;;;;;;;;15.16;100.00;99896.63;5074659;28;19924;-77
2022/07/16 03:07:50;;;;;;;;;;;;;;;15.12;100.00;99890.25;5057839;28;19924;-77
2022/07/16 03:10:18;;;;;;;;;;;;;;;15.20;100.00;99891.69;5058021;28;19924;-77
2022/07/16 03:12:45;;;;;;;;;;;;;;;15.46;100.00;99891.56;5074566;28;19970;-77
2022/07/16 03:15:12;;;;;;;;;;;;;;;15.48;100.00;99891.13;5057888;28;20403;-77
2022/07/16 03:17:39;;;;;;;;;;;;;;;15.64;100.00;99889.13;5057608;28;20395;-77
2022/07/16 03:20:07;;;;;;;;;;;;;;;15.84;100.00;99892.63;5075489;28;19924;-77
2022/07/16 03:22:34;;;;;;;;;;;;;;;15.98;100.00;99892.31;5074364;28;20015;-77
2022/07/16 03:25:01;;;;;;;;;;;;;;;16.04;100.00;99887.72;5074392;28;19943;-77
2022/07/16 03:27:28;;;;;;;;;;;;;;;15.82;100.00;99883.84;5075472;28;19924;-77
2022/07/16 03:29:55;;;;;;;;;;;;;;;16.10;100.00;99885.16;5074279;28;19925;-77
2022/07/16 03:32:22;;;;;;;;;;;;;;;16.27;100.00;99885.97;5074438;28;20021;-77
2022/07/16 03:34:49;;;;;;;;;;;;;;;15.66;100.00;99881.00;5075314;28;19931;-77
2022/07/16 03:37:16;;;;;;;;;;;;;;;15.25;100.00;99871.47;5057553;28;20460;-77
2022/07/16 03:39:43;;;;;;;;;;;;;;;15.63;100.00;99881.88;5075177;28;19925;-77
2022/07/16 03:42:10;;;;;;;;;;;;;;;15.70;100.00;99881.72;5074032;28;20441;-77
2022/07/16 03:44:37;;;;;;;;;;;;;;;15.61;100.00;99875.09;5075141;28;19925;-77
2022/07/16 03:47:04;;;;;;;;;;;;;;;14.94;100.00;99875.75;5073855;28;20015;-77
2022/07/16 03:49:31;;;;;;;;;;;;;;;15.20;100.00;99875.59;5075210;28;19932;-77
2022/07/16 03:51:58;;;;;;;;;;;;;;;15.53;100.00;99873.69;5057226;28;19931;-77
2022/07/16 03:54:25;;;;;;;;;;;;;;;15.77;100.00;99881.56;5073884;28;19924;-77
2022/07/16 03:56:52;;;;;;;;;;;;;;;15.25;100.00;99880.69;5073603;28;20376;-77
2022/07/16 03:59:19;;;;;;;;;;;;;;;15.54;100.00;99878.09;5072797;28;19955;-77
2022/07/16 04:01:46;;;;;;;;;;;;;;;15.57;100.00;99878.00;5073639;28;20015;-77
2022/07/16 04:04:14;;;;;;;;;;;;;;;15.00;100.00;99876.84;5056896;28;19929;-77
2022/07/16 04:06:41;;;;;;;;;;;;;;;15.29;100.00;99872.19;5073350;28;20379;-77
2022/07/16 04:09:08;;;;;;;;;;;;;;;14.76;100.00;99878.94;5056851;28;19947;-77
2022/07/16 04:11:35;;;;;;;;;;;;;;;15.01;100.00;99876.41;5073575;28;19928;-77
2022/07/16 04:14:02;;;;;;;;;;;;;;;15.21;100.00;99877.19;5056700;28;20406;-77
2022/07/16 04:16:29;;;;;;;;;;;;;;;15.32;100.00;99877.75;5056982;28;19991;-77
2022/07/16 04:18:56;;;;;;;;;;;;;;;15.04;100.00;99883.97;5073242;28;20299;-77
2022/07/16 04:21:23;;;;;;;;;;;;;;;15.21;100.00;99877.19;5056732;28;19924;-77
2022/07/16 04:23:53;;;;;;;;;;;;;;;15.35;100.00;99876.88;5072491;28;21428;-77
2022/07/16 04:26:21;;;;;;;;;;;;;;;14.52;100.00;99883.81;5074290;28;19925;-77
2022/07/16 04:28:48;;;;;;;;;;;;;;;15.11;100.00;99881.03;5074421;28;20358;-77
2022/07/16 04:31:15;;;;;;;;;;;;;;;15.09;100.00;99872.22;5056363;28;19924;-77
2022/07/16 04:33:42;;;;;;;;;;;;;;;14.88;100.00;99874.69;5056695;28;20375;-77
2022/07/16 04:36:09;;;;;;;;;;;;;;;14.96;100.00;99871.31;5056151;28;19925;-77
2022/07/16 04:38:36;;;;;;;;;;;;;;;15.10;100.00;99870.22;5074257;28;19990;-77
2022/07/16 04:41:03;;;;;;;;;;;;;;;15.55;100.00;99874.84;5039678;28;20418;-77
2022/07/16 04:43:30;;;;;;;;;;;;;;;15.63;100.00;99869.84;5073107;28;19924;-77
2022/07/16 04:45:58;;;;;;;;;;;;;;;15.76;100.00;99877.16;5074075;28;19971;-77
2022/07/16 04:48:25;;;;;;;;;;;;;;;15.75;100.00;99871.97;5072895;28;19951;-77
2022/07/16 04:50:52;;;;;;;;;;;;;;;15.91;100.00;99877.59;5055973;28;20402;-77
2022/07/16 04:53:19;;;;;;;;;;;;;;;16.09;100.00;99870.28;5056188;28;19959;-77
2022/07/16 04:55:46;;;;;;;;;;;;;;;16.18;100.00;99870.44;5055988;28;19955;-77
2022/07/16 04:58:14;;;;;;;;;;;;;;;16.26;100.00;99873.88;5055919;28;19928;-77
2022/07/16 05:00:41;;;;;;;;;;;;;;;16.27;100.00;99870.63;5072625;28;19925;-77
2022/07/16 05:03:09;;;;;;;;;;;;;;;16.32;100.00;99877.75;5072559;28;19924;-77
2022/07/16 05:05:37;;;;;;;;;;;;;;;16.43;100.00;99889.56;5055550;28;19924;-77
2022/07/16 05:08:05;;;;;;;;;;;;;;;16.54;100.00;99875.19;5072320;28;19929;-77
2022/07/16 05:10:33;;;;;;;;;;;;;;;16.61;100.00;99891.91;5055390;28;19934;-77
2022/07/16 05:13:00;;;;;;;;;;;;;;;16.68;100.00;99886.88;5073527;28;19929;-77
2022/07/16 05:15:27;;;;;;;;;;;;;;;16.72;100.00;99889.59;5038941;28;20315;-77
2022/07/16 05:17:54;;;;;;;;;;;;;;;16.86;100.00;99889.19;5088944;28;20040;-77
2022/07/16 05:20:21;;;;;;;;;;;;;;;16.99;100.00;99893.66;5055278;28;19932;-77
2022/07/16 05:22:48;;;;;;;;;;;;;;;16.95;100.00;99889.34;5072305;28;20386;-77
2022/07/16 05:25:16;;;;;;;;;;;;;;;17.02;100.00;99900.44;5073365;28;19939;-77
2022/07/16 05:27:44;;;;;;;;;;;;;;;17.31;100.00;99906.84;5055448;28;19924;-77
2022/07/16 05:30:11;;;;;;;;;;;;;;;17.39;100.00;99905.38;5055308;28;19932;-77
2022/07/16 05:32:42;;;;;;;;;;;;;;;17.13;100.00;99907.34;5038825;28;20025;-77
2022/07/16 05:35:11;;;;;;;;;;;;;;;16.80;100.00;99896.59;5055204;28;19928;-77
2022/07/16 05:37:38;;;;;;;;;;;;;;;16.63;100.00;99900.72;5073162;28;20421;-77
2022/07/16 05:40:06;;;;;;;;;;;;;;;16.61;100.00;99900.38;5071984;28;19932;-77
2022/07/16 05:42:33;;;;;;;;;;;;;;;16.94;100.00;99904.69;5073118;28;19924;-77
2022/07/16 05:45:00;;;;;;;;;;;;;;;17.21;100.00;99905.09;5055107;28;19979;-77
2022/07/16 05:47:27;;;;;;;;;;;;;;;17.37;100.00;99907.88;5073059;28;20425;-77
2022/07/16 05:49:54;;;;;;;;;;;;;;;17.34;100.00;99903.13;5055267;28;19928;-77
2022/07/16 05:52:21;;;;;;;;;;;;;;;17.36;100.00;99901.41;5073305;28;19978;-77
2022/07/16 05:54:48;;;;;;;;;;;;;;;17.42;100.00;99907.28;5072881;28;19931;-77
2022/07/16 05:57:15;;;;;;;;;;;;;;;17.53;100.00;99910.63;5071721;28;20361;-77
2022/07/16 05:59:42;;;;;;;;;;;;;;;17.41;100.00;99911.38;5071739;28;19925;-77
2022/07/16 06:02:09;;;;;;;;;;;;;;;17.65;100.00;99913.47;5055002;28;19983;-77
2022/07/16 06:04:37;;;;;;;;;;;;;;;17.71;100.00;99900.34;5071593;28;20383;-77
2022/07/16 06:07:04;;;;;;;;;;;;;;;17.59;100.00;99914.47;5071518;28;19930;-77
2022/07/16 06:09:30;;;;;;;;;;;;;;;17.75;100.00;99911.56;5054982;28;19924;-77
2022/07/16 06:11:57;;;;;;;;;;;;;;;17.99;100.00;99909.97;5054959;28;20025;-77
2022/07/16 06:14:25;;;;;;;;;;;;;;;17.72;100.00;99906.81;5055123;28;19932;-77
2022/07/16 06:16:52;;;;;;;;;;;;;;;17.94;100.00;99902.03;5038168;28;19932;-77
2022/07/16 06:19:19;;;;;;;;;;;;;;;18.14;100.00;99902.59;5054610;28;19924;-77
2022/07/16 06:21:46;;;;;;;;;;;;;;;17.93;100.00;99911.78;5074751;28;19925;-77
2022/07/16 06:24:13;;;;;;;;;;;;;;;17.60;100.00;99905.53;5075458;28;19940;-77
2022/07/16 06:26:47;;;;;;;;;;;;;;;18.10;100.00;99909.63;5058691;28;19924;-77
2022/07/16 06:29:14;;;;;;;;;;;;;;;17.87;100.00;99913.59;5058824;28;20399;-77
2022/07/16 06:31:43;;;;;;;;;;;;;;;17.90;100.00;99907.81;5058830;28;19924;-77
2022/07/16 06:34:11;;;;;;;;;;;;;;;17.56;100.00;99909.72;5075364;28;20383;-77
2022/07/16 06:36:38;;;;;;;;;;;;;;;18.02;100.00;99909.84;5076375;28;19978;-77
2022/07/16 06:39:05;;;;;;;;;;;;;;;17.94;100.00;99907.69;5075294;28;19928;-77
2022/07/16 06:41:32;;;;;;;;;;;;;;;18.04;100.00;99923.53;5076304;28;19978;-77
2022/07/16 06:43:59;;;;;;;;;;;;;;;18.34;100.00;99911.63;5058801;28;19944;-77
2022/07/16 06:46:26;;;;;;;;;;;;;;;17.89;100.00;99911.88;5074952;28;19925;-77
2022/07/16 06:48:53;;;;;;;;;;;;;;;18.43;100.00;99917.41;5108972;28;19932;-77
2022/07/16 06:51:21;;;;;;;;;;;;;;;18.42;100.00;99920.69;5075078;28;20405;-77
2022/07/16 06:53:48;;;;;;;;;;;;;;;18.61;100.00;99911.13;5074995;28;19928;-77
2022/07/16 06:56:15;;;;;;;;;;;;;;;18.73;100.00;99921.59;5058057;28;20034;-77
2022/07/16 06:58:42;;;;;;;;;;;;;;;18.36;100.00;99922.47;5074898;28;19931;-77
2022/07/16 07:01:09;;;;;;;;;;;;;;;18.61;100.00;99920.41;5074603;28;19983;-77
2022/07/16 07:03:39;;;;;;;;;;;;;;;19.90;100.00;99915.97;5058076;28;19925;-77
2022/07/16 07:06:06;;;;;;;;;;;;;;;21.32;100.00;99901.69;5075887;28;20363;-77
2022/07/16 07:08:34;;;;;;;;;;;;;;;23.00;100.00;99896.09;5074701;28;19931;-77
2022/07/16 07:11:01;;;;;;;;;;;;;;;23.97;100.00;99884.63;5075725;28;19928;-78
2022/07/16 07:13:30;;;;;;;;;;;;;;;24.77;100.00;99893.31;5074647;28;19963;-78
2022/07/16 07:15:58;;;;;;;;;;;;;;;24.39;100.00;99899.28;5074230;28;19925;-78
2022/07/16 07:18:25;;;;;;;;;;;;;;;25.68;100.00;99896.16;5074347;28;20029;-78
2022/07/16 07:20:54;;;;;;;;;;;;;;;26.21;100.00;99899.22;5074508;28;19925;-78
2022/07/16 07:23:22;;;;;;;;;;;;;;;25.63;100.00;99904.69;5057762;28;19924;-78
2022/07/16 07:25:48;;;;;;;;;;;;;;;26.59;100.00;99903.59;5075719;28;19929;-78
2022/07/16 07:28:16;;;;;;;;;;;;;;;26.63;100.00;99900.53;5074309;28;20335;-78
2022/07/16 07:30:44;;;;;;;;;;;;;;;26.67;100.00;99906.78;5057560;28;20292;-78
2022/07/16 07:33:11;;;;;;;;;;;;;;;27.23;100.00;99897.09;5074132;28;19994;-78
2022/07/16 07:35:38;;;;;;;;;;;;;;;28.43;100.00;99886.97;5057552;28;19925;-78
2022/07/16 07:38:05;;;;;;;;;;;;;;;27.99;100.00;99895.69;5074108;28;20145;-78
2022/07/16 07:40:32;;;;;;;;;;;;;;;25.85;100.00;99902.03;5074296;28;19932;-78
2022/07/16 07:42:59;;;;;;;;;;;;;;;26.82;100.00;99904.53;5057384;28;19956;-78
2022/07/16 07:45:26;;;;;;;;;;;;;;;27.82;100.00;99909.22;5073741;28;19928;-78
2022/07/16 07:47:53;;;;;;;;;;;;;;;26.34;100.00;99913.88;5057549;28;20043;-78
2022/07/16 07:50:20;;;;;;;;;;;;;;;26.07;100.00;99920.19;5057350;28;19924;-78
2022/07/16 07:52:47;;;;;;;;;;;;;;;26.83;100.00;99921.22;5073789;28;20449;-78
2022/07/16 07:55:15;;;;;;;;;;;;;;;27.47;100.00;99923.28;5057081;28;20015;-78
2022/07/16 07:57:42;;;;;;;;;;;;;;;26.93;100.00;99921.78;5057280;28;20031;-78
2022/07/16 08:00:10;;;;;;;;;;;;;;;25.87;100.00;99931.72;5040497;28;19925;-78
2022/07/16 08:02:44;;;;;;;;;;;;;;;25.82;100.00;99940.25;5073610;28;19931;-78
2022/07/16 08:05:11;;;;;;;;;;;;;;;26.12;100.00;99930.13;5057203;28;20410;-78
2022/07/16 08:07:38;;;;;;;;;;;;;;;25.14;100.00;99933.53;5073348;28;20019;-78
2022/07/16 08:10:06;;;;;;;;;;;;;;;24.55;100.00;99938.72;5056838;28;20307;-77
2022/07/16 08:12:32;;;;;;;;;;;;;;;23.64;100.00;99946.81;5056900;28;20013;-77
2022/07/16 08:15:00;;;;;;;;;;;;;;;24.23;100.00;99943.47;5056498;28;19932;-78
2022/07/16 08:17:27;;;;;;;;;;;;;;;23.31;100.00;99949.84;5073140;28;19924;-78
2022/07/16 08:19:54;;;;;;;;;;;;;;;23.40;100.00;99955.44;5073346;28;20406;-77
2022/07/16 08:22:21;;;;;;;;;;;;;;;24.14;100.00;99939.94;5074472;28;19931;-78
2022/07/16 08:27:35;;;;;;;;;;;;;;;24.81;100.00;99936.75;5072458;28;19925;-77
2022/07/16 08:30:02;;;;;;;;;;;;;;;27.06;100.00;99933.56;5074910;28;19929;-78
2022/07/16 08:32:29;;;;;;;;;;;;;;;26.53;100.00;99931.44;5073175;28;19928;-78
2022/07/16 08:34:56;;;;;;;;;;;;;;;26.59;100.00;99934.34;5056308;28;20025;-78
2022/07/16 08:37:31;;;;;;;;;;;;;;;27.19;100.00;99936.75;5072874;28;19924;-78
2022/07/16 08:39:58;;;;;;;;;;;;;;;28.09;100.00;99940.84;5072982;28;19978;-78
2022/07/16 08:42:25;;;;;;;;;;;;;;;28.21;100.00;99926.47;5056042;28;19924;-78
2022/07/16 08:44:52;;;;;;;;;;;;;;;27.85;100.00;99936.91;5073412;28;19994;-78
2022/07/16 08:47:20;;;;;;;;;;;;;;;28.27;100.00;99925.16;5073967;28;19924;-78
2022/07/16 08:49:47;;;;;;;;;;;;;;;26.71;100.00;99930.25;5072929;28;19924;-78
2022/07/16 08:52:15;;;;;;;;;;;;;;;26.16;100.00;99937.19;5072694;28;20502;-78
2022/07/16 08:54:44;;;;;;;;;;;;;;;27.10;100.00;99928.34;5056097;28;20057;-78
2022/07/16 08:57:15;;;;;;;;;;;;;;;27.30;100.00;99936.78;5072291;28;19924;-78
2022/07/16 08:59:42;;;;;;;;;;;;;;;27.28;100.00;99936.53;5072517;28;19931;-78
2022/07/16 09:02:13;;;;;;;;;;;;;;;26.65;100.00;99938.84;5055907;28;19924;-78
2022/07/16 09:04:41;;;;;;;;;;;;;;;25.69;100.00;99952.09;5072512;28;20426;-78
2022/07/16 09:07:12;;;;;;;;;;;;;;;25.43;100.00;99965.63;5073399;28;19924;-78
2022/07/16 09:09:40;;;;;;;;;;;;;;;24.78;100.00;99960.63;5072331;28;19925;-78
2022/07/16 09:12:07;;;;;;;;;;;;;;;24.41;100.00;99959.56;5072196;28;19954;-78
2022/07/16 09:14:34;;;;;;;;;;;;;;;23.86;100.00;99970.84;5073732;28;19932;-78
2022/07/16 09:17:02;;;;;;;;;;;;;;;24.60;100.00;99949.44;5073324;28;20080;-78
2022/07/16 09:19:29;;;;;;;;;;;;;;;24.84;100.00;99961.47;5073235;28;19930;-78
2022/07/16 09:21:56;;;;;;;;;;;;;;;23.69;100.00;99978.31;5073274;28;20013;-78
2022/07/16 09:24:31;;;;;;;;;;;;;;;24.31;100.00;99966.69;5073382;28;19924;-78
2022/07/16 09:27:11;;;;;;;;;;;;;;;25.25;100.00;99954.47;5073088;28;20387;-78
2022/07/16 09:29:46;;;;;;;;;;;;;;;25.27;100.00;99949.03;5072134;28;20015;-78
2022/07/16 09:32:25;;;;;;;;;;;;;;;24.39;100.00;99951.47;5072401;28;19924;-78
2022/07/16 09:35:05;;;;;;;;;;;;;;;23.61;100.00;99962.88;5071971;28;19978;-78
2022/07/16 09:37:52;;;;;;;;;;;;;;;23.62;100.00;99966.50;5072121;28;19924;-78
2022/07/16 09:40:32;;;;;;;;;;;;;;;24.26;100.00;99950.25;5073014;28;19987;-78
2022/07/16 09:43:00;;;;;;;;;;;;;;;25.17;100.00;99946.84;5071705;28;19924;-78
2022/07/16 09:45:29;;;;;;;;;;;;;;;25.29;100.00;99949.31;5073090;28;19928;-78
2022/07/16 09:47:56;;;;;;;;;;;;;;;25.47;100.00;99943.31;5073137;28;19925;-78
2022/07/16 09:50:23;;;;;;;;;;;;;;;24.95;100.00;99947.34;5071503;28;19925;-78
2022/07/16 09:52:50;;;;;;;;;;;;;;;24.92;100.00;99936.91;5072831;28;19956;-78
2022/07/16 09:55:18;;;;;;;;;;;;;;;24.52;100.00;99942.59;5071835;28;19924;-78
2022/07/16 09:57:46;;;;;;;;;;;;;;;25.49;100.00;99929.25;5055005;28;20019;-80
2022/07/16 10:00:13;;;;;;;;;;;;;;;26.74;100.00;99926.38;5073368;28;19924;-80
2022/07/16 10:02:42;;;;;;;;;;;;;;;26.80;100.00;99933.72;5073511;28;19979;-80
2022/07/16 10:05:09;;;;;;;;;;;;;;;26.09;100.00;99931.94;5073689;28;20241;-79
2022/07/16 10:07:36;;;;;;;;;;;;;;;26.35;100.00;99926.88;5073388;28;20371;-79
2022/07/16 10:10:04;;;;;;;;;;;;;;;26.01;100.00;99927.97;5071796;28;19971;-79
2022/07/16 10:12:31;;;;;;;;;;;;;;;26.41;100.00;99927.75;5072192;28;20245;-80
2022/07/16 10:14:59;;;;;;;;;;;;;;;26.57;100.00;99925.50;5072694;28;19929;-80
2022/07/16 10:17:37;;;;;;;;;;;;;;;26.61;100.00;99926.03;5105908;28;20452;-80
2022/07/16 10:20:06;;;;;;;;;;;;;;;26.44;100.00;99935.31;5055195;28;19925;-80
2022/07/16 10:22:34;;;;;;;;;;;;;;;25.91;100.00;99935.16;5072330;28;20368;-79
2022/07/16 10:25:09;;;;;;;;;;;;;;;25.68;100.00;99936.22;5036019;28;19928;-79
2022/07/16 10:27:36;;;;;;;;;;;;;;;25.67;100.00;99939.59;5068610;28;19936;-79
2022/07/16 10:30:08;;;;;;;;;;;;;;;25.33;100.00;99924.16;5070505;28;19924;-80
2022/07/16 10:32:54;;;;;;;;;;;;;;;24.88;100.00;99930.63;5070496;28;19931;-80
2022/07/16 10:35:28;;;;;;;;;;;;;;;25.64;100.00;99923.44;5070465;28;19990;-80
2022/07/16 10:38:05;;;;;;;;;;;;;;;25.80;100.00;99929.31;5071065;28;19925;-80
2022/07/16 10:40:46;;;;;;;;;;;;;;;26.01;100.00;99919.38;5072147;28;19932;-80
2022/07/16 10:43:17;;;;;;;;;;;;;;;26.45;100.00;99928.28;5072263;28;19931;-80
2022/07/16 10:45:49;;;;;;;;;;;;;;;26.06;100.00;99929.28;5070902;28;20269;-80
2022/07/16 10:48:17;;;;;;;;;;;;;;;26.19;100.00;99918.97;5072437;28;19929;-80
2022/07/16 10:51:03;;;;;;;;;;;;;;;25.31;100.00;99923.84;5072263;28;20368;-79
2022/07/16 10:53:50;;;;;;;;;;;;;;;25.53;100.00;99941.28;5072004;28;19924;-80
2022/07/16 10:56:37;;;;;;;;;;;;;;;25.72;100.00;99933.91;5071552;28;19973;-79
2022/07/16 10:59:07;;;;;;;;;;;;;;;26.11;100.00;99935.06;5071342;28;19924;-80
2022/07/16 11:01:35;;;;;;;;;;;;;;;25.09;100.00;99935.03;5053782;28;19932;-80
2022/07/16 11:04:02;;;;;;;;;;;;;;;25.55;100.00;99932.97;5071209;28;19983;-80
2022/07/16 11:06:29;;;;;;;;;;;;;;;25.10;100.00;99939.47;5069594;28;19981;-80
2022/07/16 11:08:57;;;;;;;;;;;;;;;25.73;100.00;99932.66;5073393;28;19930;-80
2022/07/16 11:11:35;;;;;;;;;;;;;;;26.08;100.00;99941.03;5073849;28;19924;-80
2022/07/16 11:14:02;;;;;;;;;;;;;;;25.45;100.00;99945.09;5075577;28;19928;-80
2022/07/16 11:16:30;;;;;;;;;;;;;;;25.37;100.00;99944.75;5075533;28;19924;-80
2022/07/16 11:19:04;;;;;;;;;;;;;;;25.53;100.00;99947.00;5073811;28;20284;-80
2022/07/16 11:21:31;;;;;;;;;;;;;;;25.27;100.00;99940.44;5074114;28;19931;-80
2022/07/16 11:23:59;;;;;;;;;;;;;;;25.68;100.00;99946.88;5057471;28;20355;-80
2022/07/16 11:26:27;;;;;;;;;;;;;;;25.63;100.00;99939.81;5075257;28;20295;-80
2022/07/16 11:28:55;;;;;;;;;;;;;;;25.58;100.00;99940.53;5075005;28;20018;-80
2022/07/16 11:31:24;;;;;;;;;;;;;;;25.41;100.00;99945.31;5073938;28;20406;-80
2022/07/16 11:33:52;;;;;;;;;;;;;;;25.65;100.00;99936.44;5074121;28;19924;-80
2022/07/16 11:36:19;;;;;;;;;;;;;;;26.01;100.00;99950.88;5073817;28;19990;-80
2022/07/16 11:38:46;;;;;;;;;;;;;;;25.98;100.00;99937.56;5075165;28;20027;-80
2022/07/16 11:41:15;;;;;;;;;;;;;;;26.21;100.00;99945.03;5073969;28;19925;-80
2022/07/16 11:43:43;;;;;;;;;;;;;;;25.73;100.00;99949.81;5074048;28;20298;-80
2022/07/16 11:46:24;;;;;;;;;;;;;;;25.85;100.00;99945.75;5107236;28;19931;-80
2022/07/16 11:48:51;;;;;;;;;;;;;;;25.46;100.00;99940.94;5073721;28;19955;-80
2022/07/16 11:51:19;;;;;;;;;;;;;;;25.89;100.00;99940.59;5074882;28;20011;-80
2022/07/16 11:53:50;;;;;;;;;;;;;;;26.05;100.00;99931.38;5073538;28;20314;-80
2022/07/16 11:56:31;;;;;;;;;;;;;;;25.91;100.00;99931.50;5073609;28;19978;-80
2022/07/16 11:58:58;;;;;;;;;;;;;;;25.21;100.00;99931.03;5074712;28;20386;-80
2022/07/16 12:01:30;;;;;;;;;;;;;;;24.82;100.00;99949.78;5074633;28;19928;-80
2022/07/16 12:03:58;;;;;;;;;;;;;;;25.10;100.00;99942.31;5073470;28;19925;-80
2022/07/16 12:06:25;;;;;;;;;;;;;;;25.80;100.00;99940.75;5073162;28;19924;-80
2022/07/16 12:08:53;;;;;;;;;;;;;;;26.13;100.00;99935.34;5074446;28;20280;-80
2022/07/16 12:11:28;;;;;;;;;;;;;;;25.95;100.00;99938.56;5074612;28;20066;-80
2022/07/16 12:13:55;;;;;;;;;;;;;;;26.22;100.00;99931.50;5074184;28;20411;-80
2022/07/16 12:16:24;;;;;;;;;;;;;;;25.48;100.00;99933.44;5074164;28;19932;-80
2022/07/16 12:19:05;;;;;;;;;;;;;;;24.96;100.00;99937.50;5073136;28;19925;-79
2022/07/16 12:21:33;;;;;;;;;;;;;;;24.41;100.00;99936.69;5073036;28;20296;-79
2022/07/16 12:24:01;;;;;;;;;;;;;;;24.25;100.00;99934.41;5074514;28;19929;-79
2022/07/16 12:26:30;;;;;;;;;;;;;;;24.33;100.00;99942.03;5072802;28;19977;-79
2022/07/16 12:28:58;;;;;;;;;;;;;;;25.19;100.00;99922.16;5073102;28;19986;-79
2022/07/16 12:31:27;;;;;;;;;;;;;;;24.92;100.00;99925.47;5073091;28;19924;-79
2022/07/16 12:33:55;;;;;;;;;;;;;;;25.01;100.00;99919.59;5074084;28;19932;-80
2022/07/16 12:36:28;;;;;;;;;;;;;;;24.65;100.00;99934.47;5073837;28;19924;-79
2022/07/16 12:38:59;;;;;;;;;;;;;;;24.73;100.00;99929.91;5072657;28;20300;-79
2022/07/16 12:41:47;;;;;;;;;;;;;;;25.11;100.00;99918.19;5073996;28;20394;-79
2022/07/16 12:44:16;;;;;;;;;;;;;;;25.46;100.00;99912.34;5073845;28;20311;-79
2022/07/16 12:46:48;;;;;;;;;;;;;;;25.20;100.00;99912.31;5073909;28;19932;-79
2022/07/16 12:49:21;;;;;;;;;;;;;;;25.31;100.00;99918.13;5073744;28;19925;-79